createdAt,value
2019-05-15T00:00:03.528Z,9.73
2019-05-15T00:01:03.513Z,9.68
2019-05-15T00:02:03.527Z,9.78
2019-05-15T00:03:03.492Z,9.66
2019-05-15T00:04:03.496Z,9.61
2019-05-15T00:05:03.471Z,9.71
2019-05-15T00:06:03.463Z,9.57
2019-05-15T00:07:03.448Z,9.64
2019-05-15T00:08:03.442Z,9.53
2019-05-15T00:09:03.435Z,9.63
2019-05-15T00:10:03.420Z,9.53
2019-05-15T00:11:03.405Z,9.46
2019-05-15T00:12:03.396Z,9.53
2019-05-15T00:13:03.383Z,9.50
2019-05-15T00:14:03.375Z,9.49
2019-05-15T00:15:03.362Z,9.45
2019-05-15T00:16:03.347Z,9.43
2019-05-15T00:17:03.336Z,9.35
2019-05-15T00:18:03.330Z,9.42
2019-05-15T00:19:03.445Z,9.39
2019-05-15T00:20:03.350Z,9.39
2019-05-15T00:21:03.302Z,9.34
2019-05-15T00:22:03.277Z,9.18
2019-05-15T00:23:03.266Z,9.23
2019-05-15T00:24:03.299Z,9.25
2019-05-15T00:25:03.244Z,9.32
2019-05-15T00:26:03.239Z,9.24
2019-05-15T00:27:03.228Z,9.30
2019-05-15T00:28:03.213Z,9.18
2019-05-15T00:29:14.818Z,9.23
2019-05-15T00:30:04.207Z,9.13
2019-05-15T00:31:03.179Z,9.06
2019-05-15T00:32:03.184Z,9.09
2019-05-15T00:33:03.155Z,9.12
2019-05-15T00:34:03.152Z,9.01
2019-05-15T00:35:03.153Z,8.97
2019-05-15T00:36:03.128Z,8.96
2019-05-15T00:37:03.119Z,8.97
2019-05-15T00:38:03.104Z,8.93
2019-05-15T00:39:03.095Z,8.90
2019-05-15T00:40:03.090Z,8.87
2019-05-15T00:41:03.065Z,8.72
2019-05-15T00:42:03.100Z,8.79
2019-05-15T00:43:03.046Z,8.71
2019-05-15T00:44:03.038Z,8.86
2019-05-15T00:45:03.032Z,8.81
2019-05-15T00:46:03.013Z,8.78
2019-05-15T00:47:02.998Z,8.69
2019-05-15T00:48:02.991Z,8.68
2019-05-15T00:49:02.979Z,8.65
2019-05-15T00:50:02.975Z,8.66
2019-05-15T00:51:02.954Z,8.58
2019-05-15T00:52:02.960Z,8.60
2019-05-15T00:53:02.933Z,8.69
2019-05-15T00:54:02.920Z,8.57
2019-05-15T00:55:02.921Z,8.62
2019-05-15T00:56:02.901Z,8.54
2019-05-15T00:57:02.888Z,8.54
2019-05-15T00:58:02.878Z,8.54
2019-05-15T00:59:02.863Z,8.58
2019-05-15T01:00:02.861Z,8.44
2019-05-15T01:01:02.841Z,8.53
2019-05-15T01:02:02.836Z,8.42
2019-05-15T01:03:02.819Z,8.47
2019-05-15T01:04:02.808Z,8.44
2019-05-15T01:05:02.809Z,8.45
2019-05-15T01:06:02.798Z,8.37
2019-05-15T01:07:02.776Z,8.33
2019-05-15T01:08:02.764Z,8.30
2019-05-15T01:09:02.774Z,8.37
2019-05-15T01:10:02.753Z,8.30
2019-05-15T01:11:02.729Z,8.29
2019-05-15T01:12:02.720Z,8.28
2019-05-15T01:13:02.707Z,8.29
2019-05-15T01:14:02.708Z,8.17
2019-05-15T01:15:02.698Z,8.20
2019-05-15T01:16:02.676Z,8.21
2019-05-15T01:17:02.664Z,8.18
2019-05-15T01:18:02.651Z,8.29
2019-05-15T01:19:02.641Z,8.12
2019-05-15T01:20:02.644Z,8.11
2019-05-15T01:21:02.619Z,8.10
2019-05-15T01:22:02.611Z,8.10
2019-05-15T01:23:02.602Z,8.04
2019-05-15T01:24:02.584Z,8.00
2019-05-15T01:25:02.586Z,8.03
2019-05-15T01:26:02.562Z,7.92
2019-05-15T01:27:02.555Z,8.00
2019-05-15T01:28:02.544Z,7.99
2019-05-15T01:29:02.528Z,7.97
2019-05-15T01:30:02.517Z,7.94
2019-05-15T01:31:02.515Z,7.92
2019-05-15T01:32:02.493Z,7.97
2019-05-15T01:33:02.486Z,7.89
2019-05-15T01:34:02.478Z,7.89
2019-05-15T01:35:02.474Z,7.92
2019-05-15T01:36:02.461Z,7.90
2019-05-15T01:37:02.454Z,7.90
2019-05-15T01:38:02.430Z,7.90
2019-05-15T01:39:02.415Z,7.90
2019-05-15T01:40:02.406Z,7.96
2019-05-15T05:45:01.014Z,10.59
2019-05-15T05:46:00.993Z,10.76
2019-05-15T05:47:00.981Z,10.78
2019-05-15T05:48:00.972Z,10.83
2019-05-15T05:49:00.962Z,11.01
2019-05-15T05:50:00.955Z,11.09
2019-05-15T05:51:00.937Z,11.17
2019-05-15T05:52:00.929Z,11.29
2019-05-15T05:53:00.917Z,11.35
2019-05-15T05:54:00.904Z,11.47
2019-05-15T05:55:00.910Z,11.64
2019-05-15T05:56:00.881Z,11.75
2019-05-15T05:57:00.870Z,11.80
2019-05-15T05:58:00.861Z,12.02
2019-05-15T05:59:00.845Z,12.04
2019-05-15T06:00:00.845Z,12.11
2019-05-15T06:01:00.968Z,12.12
2019-05-15T06:02:00.856Z,12.21
2019-05-15T06:03:00.805Z,12.24
2019-05-15T06:04:00.791Z,12.37
2019-05-15T06:05:00.789Z,12.42
2019-05-15T06:06:00.769Z,12.54
2019-05-15T06:07:13.823Z,12.60
2019-05-15T06:08:01.745Z,12.62
2019-05-15T06:09:00.732Z,12.78
2019-05-15T06:10:00.734Z,12.64
2019-05-15T06:11:00.733Z,12.78
2019-05-15T06:12:00.747Z,12.87
2019-05-15T06:13:00.686Z,12.88
2019-05-15T06:14:00.679Z,13.04
2019-05-15T06:15:00.675Z,13.11
2019-05-15T06:16:00.659Z,13.07
2019-05-15T06:17:00.645Z,13.18
2019-05-15T06:18:00.632Z,13.25
2019-05-15T06:19:00.644Z,13.43
2019-05-15T06:20:00.621Z,13.47
2019-05-15T06:21:00.602Z,13.59
2019-05-15T06:22:01.155Z,13.63
2019-05-15T06:23:00.582Z,13.73
2019-05-15T06:24:04.504Z,13.92
2019-05-15T06:25:04.892Z,13.89
2019-05-15T06:26:00.540Z,14.04
2019-05-15T06:27:00.538Z,14.07
2019-05-15T06:28:00.653Z,14.06
2019-05-15T06:29:00.533Z,14.06
2019-05-15T06:30:00.503Z,14.12
2019-05-15T06:31:00.931Z,14.20
2019-05-15T06:32:00.475Z,14.31
2019-05-15T06:33:09.045Z,14.32
2019-05-15T06:34:01.489Z,14.27
2019-05-15T06:35:00.438Z,14.42
2019-05-15T06:36:00.438Z,14.50
2019-05-15T06:37:00.418Z,14.53
2019-05-15T06:38:00.403Z,14.67
2019-05-15T06:39:00.397Z,14.71
2019-05-15T06:40:00.381Z,14.78
2019-05-15T06:41:00.380Z,14.90
2019-05-15T06:42:00.358Z,14.95
2019-05-15T06:43:00.370Z,15.05
2019-05-15T06:44:00.346Z,15.06
2019-05-15T06:45:00.326Z,15.11
2019-05-15T06:46:00.330Z,15.13
2019-05-15T06:47:00.305Z,15.17
2019-05-15T06:48:01.596Z,15.24
2019-05-15T06:49:00.287Z,15.30
2019-05-15T06:50:00.273Z,15.36
2019-05-15T06:51:00.261Z,15.46
2019-05-15T06:52:00.256Z,15.59
2019-05-15T06:53:00.238Z,15.61
2019-05-15T06:54:00.235Z,15.72
2019-05-15T06:55:00.211Z,15.72
2019-05-15T06:56:00.205Z,15.70
2019-05-15T06:57:00.190Z,15.63
2019-05-15T06:58:00.175Z,15.79
2019-05-15T06:59:00.177Z,15.82
2019-05-15T07:00:00.154Z,15.75
2019-05-15T07:01:00.213Z,15.94
2019-05-15T07:02:00.139Z,15.96
2019-05-15T07:03:00.122Z,15.97
2019-05-15T07:04:00.117Z,15.96
2019-05-15T07:05:00.101Z,15.86
2019-05-15T07:06:00.162Z,15.81
2019-05-15T07:07:00.075Z,15.84
2019-05-15T07:08:00.064Z,15.88
2019-05-15T07:09:00.066Z,15.74
2019-05-15T07:10:00.046Z,15.70
2019-05-15T07:11:00.038Z,15.76
2019-05-15T07:12:00.020Z,15.78
2019-05-15T07:13:00.011Z,15.76
2019-05-15T07:14:00.006Z,15.85
2019-05-15T07:15:00.007Z,15.79
2019-05-15T07:15:59.977Z,15.85
2019-05-15T07:16:59.969Z,15.89
2019-05-15T07:17:59.954Z,15.88
2019-05-15T07:18:59.951Z,15.99
2019-05-15T07:19:59.929Z,15.96
2019-05-15T07:20:59.958Z,16.00
2019-05-15T07:21:59.912Z,15.93
2019-05-15T07:22:59.895Z,16.03
2019-05-15T07:23:59.903Z,15.96
2019-05-15T07:24:59.872Z,15.89
2019-05-15T07:25:59.861Z,15.84
2019-05-15T07:26:59.862Z,15.76
2019-05-15T07:27:59.836Z,15.74
2019-05-15T07:29:02.217Z,15.76
2019-05-15T07:29:59.815Z,15.75
2019-05-15T07:30:59.807Z,15.78
2019-05-15T07:31:59.792Z,15.78
2019-05-15T07:32:59.781Z,15.85
2019-05-15T07:34:00.024Z,15.94
2019-05-15T07:34:59.766Z,15.88
2019-05-15T07:35:59.752Z,15.92
2019-05-15T07:36:59.734Z,15.78
2019-05-15T07:37:59.726Z,15.85
2019-05-15T07:38:59.711Z,15.88
2019-05-15T07:39:59.710Z,15.85
2019-05-15T07:41:04.022Z,15.86
2019-05-15T07:41:59.680Z,15.96
2019-05-15T07:42:59.675Z,15.97
2019-05-15T07:43:59.660Z,15.85
2019-05-15T07:44:59.656Z,15.84
2019-05-15T07:45:59.634Z,15.85
2019-05-15T07:46:59.624Z,15.81
2019-05-15T07:47:59.612Z,15.76
2019-05-15T07:48:59.601Z,15.84
2019-05-15T07:49:59.598Z,15.75
2019-05-15T07:50:59.640Z,15.68
2019-05-15T07:51:59.567Z,15.84
2019-05-15T07:52:59.574Z,15.81
2019-05-15T07:54:02.547Z,15.82
2019-05-15T07:54:59.547Z,15.89
2019-05-15T07:56:01.132Z,15.93
2019-05-15T07:56:59.514Z,16.07
2019-05-15T07:57:59.568Z,16.04
2019-05-15T07:58:59.490Z,16.06
2019-05-15T07:59:59.489Z,16.20
2019-05-15T08:00:59.474Z,16.18
2019-05-15T08:01:59.475Z,16.30
2019-05-15T08:02:59.449Z,16.31
2019-05-15T08:04:20.498Z,16.49
2019-05-15T08:05:00.431Z,16.49
2019-05-15T08:06:02.984Z,16.49
2019-05-15T08:06:59.464Z,16.63
2019-05-15T08:07:59.392Z,16.63
2019-05-15T08:08:59.421Z,16.70
2019-05-15T08:09:59.514Z,16.68
2019-05-15T08:10:59.419Z,16.58
2019-05-15T08:12:02.805Z,16.67
2019-05-15T08:12:59.332Z,16.60
2019-05-15T08:13:59.322Z,16.52
2019-05-15T08:14:59.341Z,16.50
2019-05-15T08:15:59.307Z,16.49
2019-05-15T08:16:59.443Z,16.58
2019-05-15T08:18:08.529Z,16.67
2019-05-15T08:19:00.263Z,16.75
2019-05-15T08:19:59.270Z,16.81
2019-05-15T08:20:59.244Z,16.90
2019-05-15T08:21:59.228Z,16.78
2019-05-15T08:22:59.218Z,16.92
2019-05-15T08:23:59.250Z,16.93
2019-05-15T08:24:59.301Z,16.99
2019-05-15T08:25:59.208Z,16.96
2019-05-15T08:26:59.175Z,17.10
2019-05-15T08:27:59.338Z,17.04
2019-05-15T08:28:59.153Z,17.15
2019-05-15T08:29:59.145Z,17.11
2019-05-15T08:30:59.163Z,17.11
2019-05-15T08:31:59.291Z,17.17
2019-05-15T08:32:59.149Z,17.25
2019-05-15T08:34:12.636Z,17.22
2019-05-15T08:35:00.087Z,17.25
2019-05-15T08:35:59.088Z,17.23
2019-05-15T08:36:59.183Z,17.23
2019-05-15T08:37:59.050Z,17.25
2019-05-15T08:38:59.233Z,17.30
2019-05-15T08:39:59.562Z,17.32
2019-05-15T08:40:59.368Z,17.38
2019-05-15T08:41:59.010Z,17.36
2019-05-15T08:43:02.039Z,17.44
2019-05-15T08:43:58.982Z,17.40
2019-05-15T08:44:58.973Z,17.57
2019-05-15T08:45:58.972Z,17.55
2019-05-15T08:46:59.181Z,17.46
2019-05-15T08:47:58.947Z,17.53
2019-05-15T08:48:58.940Z,17.53
2019-05-15T08:49:58.929Z,17.64
2019-05-15T08:50:58.929Z,17.54
2019-05-15T08:51:58.895Z,17.66
2019-05-15T08:52:58.891Z,17.76
2019-05-15T08:53:58.912Z,17.73
2019-05-15T08:54:59.277Z,17.74
2019-05-15T08:55:59.014Z,17.67
2019-05-15T08:56:59.304Z,17.64
2019-05-15T08:58:07.497Z,17.59
2019-05-15T08:58:59.813Z,17.55
2019-05-15T08:59:58.812Z,17.40
2019-05-15T09:00:59.058Z,17.55
2019-05-15T09:01:58.782Z,17.57
2019-05-15T09:02:58.770Z,17.59
2019-05-15T09:03:58.777Z,17.55
2019-05-15T09:04:58.752Z,17.76
2019-05-15T09:05:59.161Z,17.89
2019-05-15T09:07:01.311Z,17.91
2019-05-15T09:07:58.713Z,17.94
2019-05-15T09:08:58.705Z,18.07
2019-05-15T09:09:58.691Z,18.17
2019-05-15T09:10:58.852Z,18.31
2019-05-15T09:11:58.667Z,18.44
2019-05-15T09:12:58.775Z,18.72
2019-05-15T09:13:59.493Z,18.79
2019-05-15T09:14:58.636Z,18.80
2019-05-15T09:15:59.027Z,18.87
2019-05-15T09:16:58.612Z,18.86
2019-05-15T09:18:09.176Z,18.86
2019-05-15T09:18:59.592Z,18.99
2019-05-15T09:19:58.893Z,19.14
2019-05-15T09:20:59.327Z,19.28
2019-05-15T09:21:58.716Z,19.39
2019-05-15T09:22:58.550Z,19.47
2019-05-15T09:23:59.064Z,19.53
2019-05-15T09:24:59.048Z,19.51
2019-05-15T09:25:58.525Z,19.51
2019-05-15T09:26:59.582Z,19.57
2019-05-15T09:27:58.493Z,19.61
2019-05-15T09:28:58.690Z,19.75
2019-05-15T09:29:59.176Z,19.83
2019-05-15T09:30:59.025Z,19.69
2019-05-15T09:31:58.984Z,19.61
2019-05-15T09:32:58.841Z,19.69
2019-05-15T09:33:58.742Z,19.63
2019-05-15T09:34:59.183Z,19.75
2019-05-15T09:35:58.565Z,19.90
2019-05-15T09:36:59.932Z,20.15
2019-05-15T09:37:58.472Z,20.30
2019-05-15T09:38:58.656Z,20.21
2019-05-15T09:39:58.543Z,20.41
2019-05-15T09:40:58.735Z,20.41
2019-05-15T09:41:58.352Z,20.41
2019-05-15T09:42:58.348Z,20.33
2019-05-15T09:43:58.326Z,20.50
2019-05-15T09:44:58.427Z,20.50
2019-05-15T09:45:58.541Z,20.68
2019-05-15T09:46:58.590Z,20.71
2019-05-15T09:47:58.985Z,20.76
2019-05-15T09:48:59.271Z,20.90
2019-05-15T09:49:58.909Z,21.04
2019-05-15T09:50:58.846Z,21.23
2019-05-15T09:51:58.651Z,21.42
2019-05-15T09:52:58.852Z,21.53
2019-05-15T09:53:59.557Z,21.72
2019-05-15T09:54:59.256Z,21.82
2019-05-15T09:55:59.909Z,21.78
2019-05-15T09:56:58.619Z,21.88
2019-05-15T09:57:59.090Z,21.90
2019-05-15T09:58:58.434Z,21.75
2019-05-15T09:59:58.683Z,22.07
2019-05-15T10:00:58.268Z,22.34
2019-05-15T10:01:58.919Z,22.47
2019-05-15T10:02:58.286Z,22.69
2019-05-15T10:03:58.237Z,22.89
2019-05-15T10:05:06.720Z,23.14
2019-05-15T10:05:59.216Z,23.40
2019-05-15T10:06:58.339Z,23.43
2019-05-15T10:07:58.127Z,23.35
2019-05-15T10:08:58.117Z,23.24
2019-05-15T10:09:58.095Z,23.38
2019-05-15T10:10:59.344Z,23.52
2019-05-15T10:11:58.078Z,23.70
2019-05-15T10:12:59.471Z,23.80
2019-05-15T10:13:58.526Z,23.60
2019-05-15T10:14:59.213Z,23.26
2019-05-15T10:15:58.634Z,23.08
2019-05-15T10:16:58.477Z,23.14
2019-05-15T10:17:59.748Z,23.22
2019-05-15T10:18:58.294Z,23.32
2019-05-15T10:19:58.329Z,23.46
2019-05-15T10:20:58.264Z,23.67
2019-05-15T10:21:59.522Z,23.79
2019-05-15T10:22:59.040Z,23.89
2019-05-15T10:23:59.002Z,23.79
2019-05-15T10:24:58.748Z,23.86
2019-05-15T10:25:58.890Z,23.92
2019-05-15T10:26:58.129Z,24.10
2019-05-15T10:27:58.053Z,24.17
2019-05-15T10:28:58.455Z,24.10
2019-05-15T10:29:58.842Z,24.00
2019-05-15T10:31:00.022Z,24.14
2019-05-15T10:31:57.859Z,24.10
2019-05-15T10:32:57.825Z,24.32
2019-05-15T10:33:58.302Z,24.42
2019-05-15T10:34:58.631Z,24.54
2019-05-15T10:35:59.081Z,24.83
2019-05-15T10:36:58.908Z,24.88
2019-05-15T10:37:59.173Z,25.09
2019-05-15T10:38:59.285Z,25.25
2019-05-15T10:39:58.461Z,25.39
2019-05-15T10:41:08.233Z,25.44
2019-05-15T10:41:58.761Z,25.57
2019-05-15T10:42:59.419Z,25.61
2019-05-15T10:44:00.103Z,25.71
2019-05-15T10:44:58.846Z,25.69
2019-05-15T10:45:58.718Z,25.54
2019-05-15T10:46:58.508Z,25.61
2019-05-15T10:47:58.567Z,25.22
2019-05-15T10:48:58.587Z,25.32
2019-05-15T10:49:59.949Z,25.27
2019-05-15T10:51:01.774Z,25.38
2019-05-15T10:51:58.634Z,25.39
2019-05-15T10:52:57.638Z,25.31
2019-05-15T10:53:57.615Z,25.19
2019-05-15T10:54:58.138Z,25.15
2019-05-15T10:55:59.554Z,25.27
2019-05-15T10:57:00.536Z,25.35
2019-05-15T10:57:57.585Z,25.56
2019-05-15T10:58:58.858Z,25.79
2019-05-15T10:59:58.440Z,25.94
2019-05-15T11:01:01.783Z,26.09
2019-05-15T11:01:59.175Z,26.11
2019-05-15T11:02:57.979Z,26.08
2019-05-15T11:03:58.936Z,26.11
2019-05-15T11:04:57.929Z,26.02
2019-05-15T11:05:57.968Z,26.11
2019-05-15T11:06:58.120Z,26.18
2019-05-15T11:07:58.905Z,26.17
2019-05-15T11:08:58.316Z,26.22
2019-05-15T11:09:58.189Z,26.42
2019-05-15T11:10:58.523Z,26.68
2019-05-15T11:11:58.330Z,26.80
2019-05-15T11:12:58.116Z,26.95
2019-05-15T11:14:00.318Z,26.95
2019-05-15T11:14:57.410Z,27.01
2019-05-15T11:15:57.400Z,27.20
2019-05-15T11:16:58.960Z,27.33
2019-05-15T11:17:58.447Z,27.36
2019-05-15T11:18:58.511Z,27.36
2019-05-15T11:19:58.667Z,27.29
2019-05-15T11:20:59.311Z,27.11
2019-05-15T11:21:58.361Z,27.02
2019-05-15T11:22:59.112Z,26.76
2019-05-15T11:23:59.015Z,26.94
2019-05-15T11:24:59.444Z,26.94
2019-05-15T11:25:58.162Z,27.20
2019-05-15T11:26:59.443Z,27.13
2019-05-15T11:27:58.980Z,27.29
2019-05-15T11:28:58.790Z,27.10
2019-05-15T11:29:58.533Z,27.04
2019-05-15T11:30:59.469Z,27.05
2019-05-15T11:31:58.088Z,27.16
2019-05-15T11:32:58.723Z,27.20
2019-05-15T11:33:58.577Z,27.17
2019-05-15T11:34:58.257Z,27.09
2019-05-15T11:36:05.079Z,27.29
2019-05-15T11:36:59.346Z,27.41
2019-05-15T11:37:57.292Z,27.36
2019-05-15T11:38:57.202Z,27.39
2019-05-15T11:39:58.998Z,27.35
2019-05-15T11:40:57.173Z,27.48
2019-05-15T11:41:57.166Z,27.58
2019-05-15T11:42:57.155Z,27.59
2019-05-15T11:43:57.145Z,27.89
2019-05-15T11:44:58.435Z,28.13
2019-05-15T11:45:58.894Z,28.25
2019-05-15T11:46:58.625Z,28.40
2019-05-15T11:47:57.105Z,28.56
2019-05-15T11:48:58.807Z,28.62
2019-05-15T11:49:58.514Z,28.48
2019-05-15T11:50:57.096Z,28.41
2019-05-15T11:52:00.666Z,28.14
2019-05-15T11:52:58.555Z,27.92
2019-05-15T11:53:58.787Z,27.85
2019-05-15T11:54:58.914Z,27.88
2019-05-15T11:55:59.646Z,27.84
2019-05-15T11:56:59.527Z,27.76
2019-05-15T11:57:59.258Z,27.61
2019-05-15T11:58:57.009Z,27.57
2019-05-15T11:59:59.630Z,27.54
2019-05-15T12:00:57.976Z,27.42
2019-05-15T12:01:58.081Z,27.54
2019-05-15T12:02:58.401Z,27.48
2019-05-15T12:03:58.500Z,27.39
2019-05-15T12:04:58.423Z,27.38
2019-05-15T12:05:59.684Z,27.67
2019-05-15T12:07:02.080Z,27.94
2019-05-15T12:07:57.923Z,27.88
2019-05-15T12:08:59.168Z,27.92
2019-05-15T12:09:58.072Z,27.92
2019-05-15T12:10:59.111Z,27.85
2019-05-15T12:11:56.873Z,27.86
2019-05-15T12:12:56.921Z,27.85
2019-05-15T12:13:56.918Z,27.62
2019-05-15T12:14:56.845Z,27.42
2019-05-15T12:15:58.929Z,27.20
2019-05-15T12:17:09.628Z,26.81
2019-05-15T12:17:59.143Z,26.69
2019-05-15T12:19:08.541Z,26.65
2019-05-15T12:20:05.230Z,26.57
2019-05-15T12:20:59.604Z,26.54
2019-05-15T12:21:59.627Z,26.17
2019-05-15T12:22:59.224Z,25.93
2019-05-15T12:23:59.120Z,25.53
2019-05-15T12:25:00.156Z,25.30
2019-05-15T12:25:59.343Z,25.22
2019-05-15T12:27:07.349Z,25.27
2019-05-15T12:27:59.632Z,25.31
2019-05-15T12:28:59.019Z,25.25
2019-05-15T12:29:59.754Z,25.25
2019-05-15T12:30:59.632Z,25.30
2019-05-15T12:31:58.934Z,25.20
2019-05-15T12:33:00.331Z,25.24
2019-05-15T12:33:58.454Z,25.16
2019-05-15T12:35:00.079Z,25.10
2019-05-15T12:35:56.638Z,25.00
2019-05-15T12:36:58.071Z,24.82
2019-05-15T12:37:56.617Z,24.75
2019-05-15T12:38:56.608Z,24.41
2019-05-15T12:59:58.222Z,24.12
2019-05-15T13:00:57.919Z,24.27
2019-05-15T13:01:58.510Z,24.32
2019-05-15T13:02:59.017Z,24.47
2019-05-15T13:03:57.987Z,24.47
2019-05-15T13:04:56.332Z,24.41
2019-05-15T13:05:56.328Z,24.14
2019-05-15T13:07:12.272Z,24.29
2019-05-15T13:07:57.297Z,24.16
2019-05-15T13:08:56.287Z,24.13
2019-05-15T13:09:57.984Z,24.31
2019-05-15T13:10:56.275Z,24.45
2019-05-15T13:11:56.258Z,24.53
2019-05-15T13:13:04.174Z,24.42
2019-05-15T13:13:59.077Z,24.42
2019-05-15T13:14:58.884Z,24.34
2019-05-15T13:15:58.702Z,24.39
2019-05-15T13:16:58.630Z,24.57
2019-05-15T13:17:59.512Z,24.85
2019-05-15T13:18:56.186Z,25.07
2019-05-15T13:19:58.507Z,25.39
2019-05-15T13:20:59.177Z,25.87
2019-05-15T13:21:57.935Z,26.12
2019-05-15T13:22:56.143Z,26.44
2019-05-15T13:23:56.121Z,26.74
2019-05-15T13:24:58.681Z,26.91
2019-05-15T13:25:58.770Z,27.17
2019-05-15T13:26:58.222Z,27.33
2019-05-15T13:27:57.990Z,27.51
2019-05-15T13:28:58.330Z,27.67
2019-05-15T13:29:58.249Z,27.91
2019-05-15T13:30:56.052Z,28.17
2019-05-15T13:31:58.281Z,28.38
2019-05-15T13:32:58.601Z,28.68
2019-05-15T13:33:58.570Z,28.84
2019-05-15T13:34:59.268Z,29.23
2019-05-15T13:35:58.435Z,29.34
2019-05-15T13:36:55.982Z,29.37
2019-05-15T13:37:58.470Z,29.55
2019-05-15T13:38:57.869Z,29.75
2019-05-15T13:39:58.526Z,29.82
2019-05-15T13:40:55.943Z,29.53
2019-05-15T13:41:55.923Z,29.08
2019-05-15T13:42:55.913Z,29.11
2019-05-15T13:43:58.208Z,29.34
2019-05-15T13:44:58.511Z,29.50
2019-05-15T13:45:57.954Z,29.63
2019-05-15T13:46:57.993Z,29.57
2019-05-15T13:47:55.859Z,29.34
2019-05-15T13:48:55.845Z,28.85
2019-05-15T13:49:55.833Z,28.70
2019-05-15T13:50:55.832Z,28.32
2019-05-15T13:51:55.815Z,28.04
2019-05-15T13:52:55.801Z,27.88
2019-05-15T13:53:55.795Z,27.76
2019-05-15T13:54:55.782Z,27.66
2019-05-15T13:55:55.786Z,27.46
2019-05-15T13:56:58.065Z,27.42
2019-05-15T13:57:57.933Z,27.24
2019-05-15T13:58:55.736Z,27.09
2019-05-15T13:59:55.730Z,27.16
2019-05-15T14:00:58.517Z,27.17
2019-05-15T14:01:55.711Z,27.28
2019-05-15T14:02:55.694Z,27.41
2019-05-15T14:03:55.705Z,27.69
2019-05-15T14:04:58.127Z,27.94
2019-05-15T14:05:58.126Z,28.16
2019-05-15T14:06:57.781Z,28.36
2019-05-15T14:07:58.167Z,28.48
2019-05-15T14:08:57.969Z,28.78
2019-05-15T14:09:55.619Z,29.06
2019-05-15T14:10:55.619Z,29.15
2019-05-15T14:11:55.600Z,29.03
2019-05-15T14:12:55.586Z,28.68
2019-05-15T14:13:55.583Z,28.38
2019-05-15T14:14:58.039Z,27.88
2019-05-15T14:15:58.080Z,27.26
2019-05-15T14:16:55.545Z,27.01
2019-05-15T14:17:57.693Z,27.02
2019-05-15T14:18:55.523Z,26.87
2019-05-15T14:19:57.932Z,26.74
2019-05-15T14:20:55.506Z,26.57
2019-05-15T14:21:55.508Z,26.25
2019-05-15T14:22:55.497Z,26.05
2019-05-15T14:23:55.469Z,25.97
2019-05-15T14:24:55.462Z,26.11
2019-05-15T14:25:55.450Z,26.28
2019-05-15T14:26:55.453Z,26.58
2019-05-15T14:27:55.430Z,26.54
2019-05-15T14:28:55.426Z,26.36
2019-05-15T14:29:55.407Z,26.40
2019-05-15T14:30:55.400Z,26.61
2019-05-15T14:31:55.399Z,26.73
2019-05-15T14:32:55.699Z,27.04
2019-05-15T14:33:55.376Z,27.24
2019-05-15T14:34:55.354Z,27.46
2019-05-15T14:35:55.343Z,27.53
2019-05-15T14:36:55.343Z,27.54
2019-05-15T14:38:03.637Z,27.66
2019-05-15T14:38:58.589Z,27.89
2019-05-15T14:39:55.302Z,28.10
2019-05-15T14:40:55.292Z,27.98
2019-05-15T14:41:55.291Z,28.06
2019-05-15T14:42:55.268Z,28.10
2019-05-15T14:43:57.711Z,28.26
2019-05-15T14:44:55.249Z,28.38
2019-05-15T14:45:55.238Z,28.21
2019-05-15T14:46:55.235Z,28.41
2019-05-15T14:47:55.230Z,28.21
2019-05-15T14:48:55.206Z,27.96
2019-05-15T14:49:55.199Z,27.79
2019-05-15T14:50:55.184Z,27.50
2019-05-15T14:52:05.772Z,27.32
2019-05-15T14:52:58.413Z,26.91
2019-05-15T14:53:55.196Z,26.61
2019-05-15T14:54:55.142Z,26.27
2019-05-15T14:55:55.142Z,26.12
2019-05-15T14:56:55.142Z,26.04
2019-05-15T14:57:55.117Z,26.21
2019-05-15T14:58:55.101Z,26.39
2019-05-15T14:59:55.091Z,26.79
2019-05-15T15:00:55.084Z,26.80
2019-05-15T15:01:55.091Z,26.99
2019-05-15T15:02:55.068Z,27.01
2019-05-15T15:03:55.049Z,26.94
2019-05-15T15:04:55.036Z,26.65
2019-05-15T15:05:55.073Z,26.42
2019-05-15T15:06:55.022Z,26.02
2019-05-15T15:07:55.027Z,25.91
2019-05-15T15:08:54.999Z,25.99
2019-05-15T15:09:54.985Z,26.04
2019-05-15T15:10:54.999Z,26.05
2019-05-15T15:11:54.991Z,26.25
2019-05-15T15:12:54.961Z,26.39
2019-05-15T15:13:54.942Z,26.44
2019-05-15T15:14:54.939Z,26.35
2019-05-15T15:15:54.922Z,26.36
2019-05-15T15:16:54.911Z,26.55
2019-05-15T15:17:54.906Z,26.40
2019-05-15T15:18:54.893Z,26.25
2019-05-15T15:19:54.889Z,26.04
2019-05-15T15:20:54.867Z,25.84
2019-05-15T15:21:54.859Z,25.53
2019-05-15T15:22:54.989Z,25.25
2019-05-15T15:23:54.929Z,24.85
2019-05-15T15:24:54.926Z,24.38
2019-05-15T15:25:54.811Z,23.92
2019-05-15T15:26:54.803Z,23.26
2019-05-15T15:27:54.803Z,22.86
2019-05-15T15:28:54.778Z,22.37
2019-05-15T15:29:54.768Z,21.88
2019-05-15T15:30:54.757Z,21.51
2019-05-15T15:31:54.752Z,21.13
2019-05-15T15:32:54.742Z,20.96
2019-05-15T15:33:54.724Z,20.77
2019-05-15T15:34:54.715Z,20.64
2019-05-15T15:35:54.704Z,20.46
2019-05-15T15:36:54.696Z,20.43
2019-05-15T15:37:54.713Z,20.46
2019-05-15T15:38:54.669Z,20.35
2019-05-15T15:39:54.658Z,20.34
2019-05-15T15:40:54.647Z,20.27
2019-05-15T15:41:54.636Z,20.09
2019-05-15T15:42:54.640Z,19.91
2019-05-15T15:43:54.616Z,19.88
2019-05-15T15:44:54.603Z,19.70
2019-05-15T15:45:54.601Z,19.70
2019-05-15T15:46:54.583Z,19.70
2019-05-15T15:47:54.594Z,19.61
2019-05-15T15:48:54.574Z,19.65
2019-05-15T15:49:54.551Z,19.63
2019-05-15T15:50:54.539Z,19.48
2019-05-15T15:51:54.530Z,19.42
2019-05-15T15:52:54.525Z,19.33
2019-05-15T15:53:54.505Z,19.32
2019-05-15T15:54:54.492Z,19.25
2019-05-15T15:55:54.481Z,19.31
2019-05-15T15:56:54.470Z,19.31
2019-05-15T15:57:54.474Z,19.20
2019-05-15T15:58:54.451Z,19.21
2019-05-15T15:59:54.456Z,18.98
2019-05-15T16:00:54.437Z,18.95
2019-05-15T16:01:54.435Z,18.87
2019-05-15T16:02:54.443Z,18.91
2019-05-15T16:03:54.393Z,18.82
2019-05-15T16:04:54.383Z,18.91
2019-05-15T16:05:54.372Z,18.95
2019-05-15T16:06:54.375Z,18.87
2019-05-15T16:07:54.346Z,18.87
2019-05-15T16:08:55.894Z,18.83
2019-05-15T16:09:54.329Z,18.62
2019-05-15T16:10:54.314Z,18.62
2019-05-15T16:11:54.307Z,18.54
2019-05-15T16:12:54.294Z,18.47
2019-05-15T16:13:54.305Z,18.47
2019-05-15T16:14:54.271Z,18.42
2019-05-15T16:15:54.260Z,18.43
2019-05-15T16:16:54.248Z,18.42
2019-05-15T16:17:54.238Z,18.37
2019-05-15T16:18:54.238Z,18.44
2019-05-15T16:19:54.215Z,18.36
2019-05-15T16:20:54.205Z,18.34
2019-05-15T16:21:54.197Z,18.37
2019-05-15T16:22:54.180Z,18.25
2019-05-15T16:23:54.188Z,18.37
2019-05-15T16:24:54.166Z,18.24
2019-05-15T16:25:54.147Z,18.24
2019-05-15T16:26:54.143Z,18.19
2019-05-15T16:27:54.129Z,18.15
2019-05-15T16:28:54.129Z,18.12
2019-05-15T16:29:54.101Z,18.04
2019-05-15T16:30:54.086Z,18.02
2019-05-15T16:31:54.077Z,18.12
2019-05-15T16:32:54.066Z,18.03
2019-05-15T16:33:54.071Z,17.94
2019-05-15T16:34:54.046Z,17.91
2019-05-15T16:35:54.097Z,17.85
2019-05-15T16:36:54.019Z,17.92
2019-05-15T16:37:54.018Z,17.97
2019-05-15T16:39:05.057Z,17.89
2019-05-15T16:39:57.809Z,17.84
2019-05-15T16:40:54.033Z,17.82
2019-05-15T16:41:53.965Z,17.88
2019-05-15T16:42:53.959Z,17.89
2019-05-15T16:43:53.957Z,17.88
2019-05-15T16:44:53.935Z,17.91
2019-05-15T16:45:53.927Z,17.84
2019-05-15T16:46:53.908Z,17.88
2019-05-15T16:47:53.913Z,17.81
2019-05-15T16:48:53.929Z,17.82
2019-05-15T16:49:53.881Z,17.79
2019-05-15T16:50:53.865Z,17.74
2019-05-15T16:51:53.884Z,17.70
2019-05-15T16:52:53.841Z,17.73
2019-05-15T16:53:53.844Z,17.70
2019-05-15T16:54:53.843Z,17.71
2019-05-15T16:55:53.817Z,17.67
2019-05-15T16:56:53.805Z,17.70
2019-05-15T16:57:53.785Z,17.69
2019-05-15T16:58:53.798Z,17.67
2019-05-15T16:59:53.777Z,17.63
2019-05-15T17:00:53.764Z,17.55
2019-05-15T17:01:53.744Z,17.41
2019-05-15T17:03:08.670Z,17.46
2019-05-15T17:03:54.730Z,17.41
2019-05-15T17:04:53.705Z,17.40
2019-05-15T17:05:53.710Z,17.33
2019-05-15T17:06:53.751Z,17.35
2019-05-15T17:07:53.673Z,17.33
2019-05-15T17:08:53.670Z,17.29
2019-05-15T17:09:53.655Z,17.38
2019-05-15T17:10:53.660Z,17.35
2019-05-15T17:11:53.636Z,17.22
2019-05-15T17:12:53.632Z,17.29
2019-05-15T17:13:53.624Z,17.25
2019-05-15T17:14:53.594Z,17.15
2019-05-15T17:15:53.582Z,17.22
2019-05-15T17:16:53.582Z,17.20
2019-05-15T17:17:53.563Z,17.20
2019-05-15T17:18:53.565Z,17.15